Cap Haitien International Airport
MTCH : rendu visible

Aérodrome :











RETROUVEZ-NOUS SUR...

 
LOGIN :

S'inscrire | Disclaimer

   EN    FR    IT 

 









Légende :    VFR   VFR Marginal   IFR   IFR Intensif   IFR Très Intensif
Visi : 
Plafond : 
>= 8 km
>= 3000ft
5 à 8 km
1000 à 3000 ft
1500m à 5 km
500 à 1000 ft
800 à 1500m
200 à 500 ft
< 800m
< 200 ft
Symboles :   Orages  Brouillard  Fortes neiges  Fortes précipitations  Vent > 20 kt






- Altitude de l'aérodrome : 10 ft
- Code IATA : CAP


MTCH - Cap Haitien International

DERNIER METAR :
  • 281601Z 27003KT 9999 FEW030CB 28/16 Q1014 RMK/CB/SW

METARs EXPIRÉS :
  • 281457Z VRB02KT 9999 FEW032TCU 28/17 Q1015 RMK/TCU/W
  • 281400Z 20004KT 9999 FEW030 25/18 Q1015

TAF TAF MTCH
Valide du 28 à 12h jusqu'au 29 à 12h UTC


281200Z 2812/2912 01010KT 9000 FEW024TCU
FM281800 26012KT 9999 SCT024
TEMPO 2903/2906 05012KT 9000 NSC



MET'MAP, la Météo Aéronautique d'un coup d'oeil ! - Copyright ORBIFLY Décembre 2007 - Disclaimer

ORBIFLY MET'MAP TEAM :

Programmation & Développement : Alexandra Zaïnal
Sur une idée originale de : Baudouin d'Aumeries
Assistance à la programmation : Marc-Olivier Méhu
Soutien technique & logistique : Manuel Goepfert

Contact : metmap@orbifly.com




SOURCES & CREDITS :

   NOAA       Earth
Advisory